Terminal Aerodrome Forecast
Issued by NWS

Current Version | Previous Version | Graphics & Text | Print | Product List | Glossary On
Versions: 1 2 3 4 5 6 7 8 9 10 11 12 13 14 15 16 17 18 19 20
045
FTUS41 KILN 161736
TAFLUK
TAF
KLUK 161736Z 1618/1718 32006KT P6SM OVC022
     FM162300 00000KT P6SM BKN018
      TEMPO 1708/1712 2SM BR SCT018
     FM171400 12006KT P6SM FEW015 BKN200=

USA.gov is the U.S. government's official web portal to all federal, state and local government web resources and services.